createdAt,value
2023-04-22T00:00:18.008Z,99545.25
2023-04-22T00:02:45.930Z,99485.22
2023-04-22T00:05:15.925Z,99540.06
2023-04-22T00:07:45.791Z,99547.03
2023-04-22T00:10:13.161Z,99541.84
2023-04-22T00:12:40.454Z,99526.13
2023-04-22T00:15:08.311Z,99541.78
2023-04-22T00:17:35.339Z,99527.00
2023-04-22T00:20:02.382Z,99550.41
2023-04-22T00:22:31.562Z,99536.38
2023-04-22T00:24:58.554Z,99531.91
2023-04-22T00:27:25.694Z,99496.16
2023-04-22T00:29:52.939Z,99550.94
2023-04-22T00:32:22.589Z,99527.38
2023-04-22T00:34:50.679Z,99550.06
2023-04-22T00:37:18.223Z,99534.41
2023-04-22T00:39:45.853Z,99557.00
2023-04-22T00:42:13.905Z,99539.50
2023-04-22T00:44:41.278Z,99556.81
2023-04-22T00:47:10.025Z,99548.03
2023-04-22T00:49:37.614Z,99531.53
2023-04-22T00:52:04.878Z,99554.97
2023-04-22T00:54:33.950Z,99550.63
2023-04-22T00:57:01.130Z,99538.38
2023-04-22T00:59:28.175Z,99549.72
2023-04-22T01:01:56.214Z,99543.56
2023-04-22T01:04:23.456Z,99543.53
2023-04-22T01:06:52.165Z,99545.28
2023-04-22T01:09:21.034Z,99528.78
2023-04-22T01:11:48.200Z,99540.94
2023-04-22T01:14:15.912Z,99542.75
2023-04-22T01:16:44.229Z,99532.16
2023-04-22T01:19:11.967Z,99519.84
2023-04-22T01:21:40.898Z,99541.63
2023-04-22T01:24:09.061Z,99533.75
2023-04-22T01:26:37.005Z,99523.22
2023-04-22T01:29:05.384Z,99536.25
2023-04-22T01:31:33.559Z,99518.78
2023-04-22T01:34:00.767Z,99535.19
2023-04-22T01:36:28.127Z,99532.50
2023-04-22T01:38:55.761Z,99528.03
2023-04-22T01:41:22.738Z,99535.84
2023-04-22T01:43:50.729Z,99536.63
2023-04-22T01:46:18.355Z,99534.00
2023-04-22T01:48:50.588Z,99533.06
2023-04-22T01:51:20.922Z,99520.00
2023-04-22T01:53:48.990Z,99532.97
2023-04-22T01:56:16.513Z,99508.56
2023-04-22T01:58:43.841Z,99525.84
2023-04-22T02:01:12.072Z,99522.38
2023-04-22T02:03:39.385Z,99522.38
2023-04-22T02:06:06.848Z,99531.13
2023-04-22T02:08:33.972Z,99536.44
2023-04-22T02:11:01.245Z,99540.72
2023-04-22T02:13:39.199Z,99536.44
2023-04-22T02:16:08.630Z,99541.59
2023-04-22T02:18:36.014Z,99534.72
2023-04-22T02:21:03.250Z,99537.25
2023-04-22T02:23:30.600Z,99534.69
2023-04-22T02:25:57.674Z,99545.03
2023-04-22T02:28:25.965Z,99534.63
2023-04-22T02:30:53.110Z,99541.50
2023-04-22T02:33:21.423Z,99535.50
2023-04-22T02:35:48.469Z,99537.28
2023-04-22T02:38:19.359Z,99538.19
2023-04-22T02:40:47.266Z,99539.88
2023-04-22T02:43:15.060Z,99533.72
2023-04-22T02:45:42.378Z,99539.78
2023-04-22T02:48:10.229Z,99533.69
2023-04-22T02:50:37.403Z,99546.63
2023-04-22T02:53:04.568Z,99548.31
2023-04-22T02:55:31.639Z,99551.75
2023-04-22T02:57:58.888Z,99551.81
2023-04-22T03:00:26.278Z,99551.84
2023-04-22T03:02:54.103Z,99550.19
2023-04-22T03:05:25.888Z,99551.97
2023-04-22T03:07:53.589Z,99542.44
2023-04-22T03:10:21.436Z,99552.16
2023-04-22T03:12:49.186Z,99554.94
2023-04-22T03:15:19.623Z,99552.56
2023-04-22T03:17:49.000Z,99550.09
2023-04-22T03:20:17.133Z,99543.16
2023-04-22T03:22:44.124Z,99545.88
2023-04-22T03:25:13.003Z,99544.16
2023-04-22T03:27:41.058Z,99539.06
2023-04-22T03:30:08.585Z,99561.78
2023-04-22T03:32:35.786Z,99504.50
2023-04-22T03:35:15.833Z,99560.38
2023-04-22T03:37:43.716Z,99563.03
2023-04-22T03:40:13.957Z,99565.72
2023-04-22T03:42:43.405Z,99562.41
2023-04-22T03:45:11.232Z,99566.88
2023-04-22T03:47:43.840Z,99555.72
2023-04-22T03:50:20.630Z,99549.78
2023-04-22T03:52:49.089Z,99568.34
2023-04-22T03:55:19.715Z,99571.19
2023-04-22T03:57:48.275Z,99555.78
2023-04-22T04:00:15.400Z,99571.50
2023-04-22T04:02:45.355Z,99568.94
2023-04-22T04:05:16.615Z,99570.69
2023-04-22T04:07:44.094Z,99569.84
2023-04-22T04:10:11.872Z,99571.53
2023-04-22T04:12:38.944Z,99576.78
2023-04-22T04:15:07.167Z,99519.38
2023-04-22T04:17:35.176Z,99563.78
2023-04-22T04:20:04.099Z,99577.81
2023-04-22T04:22:32.391Z,99581.34
2023-04-22T04:25:01.961Z,99570.13
2023-04-22T04:27:39.285Z,99584.00
2023-04-22T04:30:07.412Z,99578.75
2023-04-22T04:32:39.993Z,99573.56
2023-04-22T04:35:10.058Z,99566.63
2023-04-22T04:37:40.475Z,99571.84
2023-04-22T04:40:12.333Z,99575.34
2023-04-22T04:43:02.736Z,99572.72
2023-04-22T04:45:39.260Z,99568.34
2023-04-22T04:48:08.099Z,99564.84
2023-04-22T04:50:37.965Z,99559.63
2023-04-22T04:53:07.283Z,99568.25
2023-04-22T04:55:39.059Z,99584.69
2023-04-22T04:58:12.716Z,99579.31
2023-04-22T05:00:40.084Z,99555.72
2023-04-22T05:03:08.086Z,99577.31
2023-04-22T05:05:35.860Z,99574.69
2023-04-22T05:08:03.031Z,99576.50
2023-04-22T05:10:31.698Z,99587.78
2023-04-22T05:12:58.939Z,99580.66
2023-04-22T05:15:26.840Z,99579.66
2023-04-22T05:17:54.499Z,99583.91
2023-04-22T05:20:21.594Z,99582.09
2023-04-22T05:22:48.640Z,99586.44
2023-04-22T05:25:16.731Z,99564.50
2023-04-22T05:27:53.244Z,99569.31
2023-04-22T05:30:20.391Z,99580.22
2023-04-22T05:32:48.506Z,99574.81
2023-04-22T05:35:15.682Z,99584.38
2023-04-22T05:37:42.694Z,99587.72
2023-04-22T05:40:10.185Z,99584.78
2023-04-22T05:42:37.471Z,99579.97
2023-04-22T05:45:04.953Z,99582.53
2023-04-22T05:47:33.218Z,99578.91
2023-04-22T05:50:00.655Z,99572.69
2023-04-22T05:52:34.324Z,99583.91
2023-04-22T05:55:09.611Z,99566.25
2023-04-22T05:57:36.606Z,99577.69
2023-04-22T06:00:09.363Z,99572.03
2023-04-22T06:02:40.917Z,99573.47
2023-04-22T06:05:09.346Z,99579.38
2023-04-22T06:07:36.627Z,99593.25
2023-04-22T06:10:07.117Z,99571.66
2023-04-22T06:12:35.320Z,99569.06
2023-04-22T06:15:02.652Z,99578.34
2023-04-22T06:17:32.680Z,99571.13
2023-04-22T06:20:03.583Z,99576.81
2023-04-22T06:22:31.793Z,99578.44
2023-04-22T06:24:58.868Z,99570.06
2023-04-22T06:27:26.588Z,99579.72
2023-04-22T06:29:53.683Z,99578.53
2023-04-22T06:32:20.873Z,99568.72
2023-04-22T06:34:47.993Z,99563.50
2023-04-22T06:37:15.165Z,99565.28
2023-04-22T06:39:42.364Z,99566.78
2023-04-22T06:42:48.331Z,99573.16
2023-04-22T06:45:45.242Z,99567.88
2023-04-22T06:48:30.814Z,99564.06
2023-04-22T06:51:36.489Z,99559.63
2023-04-22T06:54:04.012Z,99558.16
2023-04-22T06:56:31.177Z,99540.41
2023-04-22T06:58:58.216Z,99558.72
2023-04-22T07:01:26.379Z,99566.03
2023-04-22T07:03:53.673Z,99541.66
2023-04-22T07:06:21.293Z,99556.63
2023-04-22T07:08:49.016Z,99557.91
2023-04-22T07:11:16.304Z,99558.25
2023-04-22T07:13:52.815Z,99556.88
2023-04-22T07:16:20.042Z,99567.09
2023-04-22T07:18:47.860Z,99547.94
2023-04-22T07:21:15.053Z,99567.75
2023-04-22T07:23:42.080Z,99570.56
2023-04-22T07:26:09.204Z,99562.47
2023-04-22T07:28:36.373Z,99560.22
2023-04-22T07:31:03.498Z,99564.72
2023-04-22T07:33:30.553Z,99552.06
2023-04-22T07:35:57.589Z,99537.19
2023-04-22T07:38:25.095Z,99561.16
2023-04-22T07:40:52.096Z,99552.72
2023-04-22T07:43:19.213Z,99569.72
2023-04-22T07:45:46.262Z,99563.44
2023-04-22T07:48:13.314Z,99553.47
2023-04-22T07:50:40.490Z,99539.28
2023-04-22T07:53:07.543Z,99550.97
2023-04-22T07:55:34.562Z,99557.44
2023-04-22T07:58:06.233Z,99568.84
2023-04-22T08:00:36.388Z,99573.28
2023-04-22T08:03:04.309Z,99561.09
2023-04-22T08:05:31.724Z,99565.28
2023-04-22T08:07:58.911Z,99557.25
2023-04-22T08:10:26.303Z,99565.63
2023-04-22T08:12:53.400Z,99567.59
2023-04-22T08:15:20.375Z,99576.72
2023-04-22T08:17:47.552Z,99563.91
2023-04-22T08:20:15.632Z,99575.28
2023-04-22T08:22:45.441Z,99575.91
2023-04-22T08:25:13.101Z,99568.81
2023-04-22T08:27:40.461Z,99568.75
2023-04-22T08:30:07.985Z,99545.53
2023-04-22T08:32:35.109Z,99513.69
2023-04-22T08:35:05.444Z,99556.38
2023-04-22T08:37:34.355Z,99556.06
2023-04-22T08:40:01.735Z,99566.63
2023-04-22T08:42:31.560Z,99571.84
2023-04-22T08:44:58.780Z,99557.75
2023-04-22T08:47:26.702Z,99570.50
2023-04-22T08:49:55.882Z,99569.50
2023-04-22T08:52:22.891Z,99567.56
2023-04-22T08:54:50.080Z,99568.97
2023-04-22T08:57:18.122Z,99550.03
2023-04-22T08:59:45.631Z,99555.69
2023-04-22T09:02:19.389Z,99561.63
2023-04-22T09:04:51.187Z,99570.63
2023-04-22T09:07:27.101Z,99558.94
2023-04-22T09:09:56.232Z,99565.09
2023-04-22T09:12:24.923Z,99565.25
2023-04-22T09:14:52.996Z,99562.81
2023-04-22T09:17:31.473Z,99543.66
2023-04-22T09:20:00.420Z,99550.66
2023-04-22T09:22:42.301Z,99565.63
2023-04-22T09:25:20.425Z,99564.47
2023-04-22T09:27:55.433Z,99531.13
2023-04-22T09:30:37.857Z,99561.69
2023-04-22T09:33:08.010Z,99566.44
2023-04-22T09:35:37.600Z,99552.19
2023-04-22T09:38:08.316Z,99554.72
2023-04-22T09:40:36.520Z,99542.47
2023-04-22T09:43:06.271Z,99555.38
2023-04-22T09:45:34.372Z,99511.41
2023-04-22T09:48:12.377Z,99555.72
2023-04-22T09:50:41.239Z,99546.94
2023-04-22T09:53:10.926Z,99540.56
2023-04-22T09:55:41.674Z,99493.72
2023-04-22T09:58:13.899Z,99544.53
2023-04-22T10:00:49.261Z,99548.44
2023-04-22T10:03:17.422Z,99541.44
2023-04-22T10:05:46.286Z,99551.69
2023-04-22T10:08:15.468Z,99528.13
2023-04-22T10:10:43.414Z,99546.03
2023-04-22T10:13:10.554Z,99538.34
2023-04-22T10:15:50.558Z,99531.66
2023-04-22T10:18:26.941Z,99506.91
2023-04-22T10:20:56.166Z,99522.88
2023-04-22T10:23:24.960Z,99535.00
2023-04-22T10:25:56.635Z,99481.13
2023-04-22T10:28:27.709Z,99534.41
2023-04-22T10:30:55.011Z,99526.91
2023-04-22T10:33:23.885Z,99517.06
2023-04-22T10:36:15.237Z,99531.03
2023-04-22T10:39:02.152Z,99540.41
2023-04-22T10:41:30.162Z,99545.84
2023-04-22T10:44:01.998Z,99537.94
2023-04-22T10:46:35.538Z,99546.16
2023-04-22T10:49:12.821Z,99540.00
2023-04-22T10:51:44.168Z,99535.63
2023-04-22T10:54:31.847Z,99529.94
2023-04-22T10:57:03.697Z,99518.56
2023-04-22T10:59:32.941Z,99538.97
2023-04-22T11:02:07.674Z,99519.59
2023-04-22T11:04:35.321Z,99530.66
2023-04-22T11:07:20.927Z,99535.88
2023-04-22T11:09:51.202Z,99524.56
2023-04-22T11:12:39.231Z,99532.72
2023-04-22T11:15:07.804Z,99532.00
2023-04-22T11:17:36.595Z,99519.53
2023-04-22T11:20:05.983Z,99524.97
2023-04-22T11:22:37.372Z,99525.06
2023-04-22T11:25:05.659Z,99529.75
2023-04-22T11:27:33.204Z,99512.59
2023-04-22T11:30:16.324Z,99508.03
2023-04-22T11:32:58.451Z,99523.19
2023-04-22T11:35:35.483Z,99520.13
2023-04-22T11:38:03.336Z,99520.06
2023-04-22T11:40:33.791Z,99509.53
2023-04-22T11:43:04.373Z,99522.53
2023-04-22T11:45:34.810Z,99521.22
2023-04-22T11:48:03.100Z,99527.59
2023-04-22T11:50:33.703Z,99522.16
2023-04-22T11:53:02.009Z,99509.75
2023-04-22T11:55:34.991Z,99497.34
2023-04-22T11:58:09.680Z,99467.16
2023-04-22T12:00:41.445Z,99505.97
2023-04-22T12:03:16.176Z,99503.25
2023-04-22T12:05:45.862Z,99502.34
2023-04-22T12:08:14.611Z,99504.09
2023-04-22T12:10:57.529Z,99509.38
2023-04-22T12:13:46.365Z,99504.72
2023-04-22T12:16:15.871Z,99497.28
2023-04-22T12:18:54.356Z,99502.34
2023-04-22T12:21:24.893Z,99486.44
2023-04-22T12:23:59.201Z,99493.50
2023-04-22T12:26:27.927Z,99501.47
2023-04-22T12:28:57.935Z,99500.69
2023-04-22T12:31:25.305Z,99469.66
2023-04-22T12:33:53.858Z,99477.75
2023-04-22T12:36:21.649Z,99492.97
2023-04-22T12:38:49.216Z,99494.63
2023-04-22T12:41:16.651Z,99484.06
2023-04-22T12:43:43.662Z,99461.06
2023-04-22T12:46:11.032Z,99477.78
2023-04-22T12:48:38.310Z,99493.56
2023-04-22T12:51:06.954Z,99489.19
2023-04-22T12:53:34.884Z,99473.44
2023-04-22T12:56:02.205Z,99487.16
2023-04-22T12:58:29.453Z,99477.56
2023-04-22T13:00:56.618Z,99479.19
2023-04-22T13:03:24.100Z,99403.09
2023-04-22T13:05:52.337Z,99475.78
2023-04-22T13:08:19.497Z,99473.84
2023-04-22T13:10:46.772Z,99476.66
2023-04-22T13:13:18.610Z,99470.44
2023-04-22T13:15:54.404Z,99476.22
2023-04-22T13:18:23.323Z,99440.75
2023-04-22T13:20:51.400Z,99467.53
2023-04-22T13:23:21.988Z,99480.53
2023-04-22T13:25:56.789Z,99471.69
2023-04-22T13:28:23.953Z,99477.00
2023-04-22T13:30:51.138Z,99482.91
2023-04-22T13:33:18.167Z,99475.41
2023-04-22T13:35:45.414Z,99479.69
2023-04-22T13:38:12.592Z,99483.97
2023-04-22T13:40:39.609Z,99486.69
2023-04-22T13:43:09.404Z,99478.13
2023-04-22T13:45:36.470Z,99480.00
2023-04-22T13:48:03.863Z,99483.16
2023-04-22T13:50:30.961Z,99486.50
2023-04-22T13:52:58.136Z,99476.13
2023-04-22T13:55:26.777Z,99491.91
2023-04-22T13:57:53.886Z,99498.19
2023-04-22T14:00:21.272Z,99494.81
2023-04-22T14:02:48.965Z,99485.31
2023-04-22T14:05:16.548Z,99489.66
2023-04-22T14:07:43.641Z,99486.31
2023-04-22T14:10:12.283Z,99470.13
2023-04-22T14:12:40.258Z,99493.47
2023-04-22T14:15:11.046Z,99500.59
2023-04-22T14:17:39.816Z,99498.03
2023-04-22T14:20:08.883Z,99495.34
2023-04-22T14:22:35.965Z,99495.34
2023-04-22T14:25:03.137Z,99476.31
2023-04-22T14:27:31.708Z,99496.97
2023-04-22T14:29:59.029Z,99443.38
2023-04-22T14:32:26.103Z,99490.94
2023-04-22T14:34:53.330Z,99493.47
2023-04-22T14:37:21.629Z,99498.78
2023-04-22T14:39:48.900Z,99498.16
2023-04-22T14:42:18.252Z,99498.28
2023-04-22T14:44:45.385Z,99509.69
2023-04-22T14:47:12.397Z,99515.06
2023-04-22T14:49:39.539Z,99473.06
2023-04-22T14:52:07.080Z,99520.88
2023-04-22T14:54:34.583Z,99507.84
2023-04-22T14:57:02.950Z,99516.59
2023-04-22T14:59:30.036Z,99444.91
2023-04-22T15:01:57.226Z,99525.66
2023-04-22T15:04:24.772Z,99525.72
2023-04-22T15:06:53.371Z,99524.75
2023-04-22T15:09:20.741Z,99478.06
2023-04-22T15:11:47.777Z,99488.69
2023-04-22T15:14:16.702Z,99519.09
2023-04-22T15:16:44.485Z,99532.16
2023-04-22T15:19:11.712Z,99503.59
2023-04-22T15:21:39.112Z,99521.03
2023-04-22T15:24:06.253Z,99538.38
2023-04-22T15:26:34.027Z,99536.78
2023-04-22T15:29:01.315Z,99536.81
2023-04-22T15:31:28.541Z,99541.28
2023-04-22T15:33:55.543Z,99535.25
2023-04-22T15:36:22.620Z,99539.72
2023-04-22T15:38:55.300Z,99527.72
2023-04-22T15:41:24.191Z,99519.25
2023-04-22T15:43:52.063Z,99536.63
2023-04-22T15:46:19.842Z,99540.91
2023-04-22T15:48:48.612Z,99539.25
2023-04-22T15:51:16.877Z,99527.16
2023-04-22T15:53:46.793Z,99536.75
2023-04-22T15:56:15.446Z,99543.81
2023-04-22T15:58:42.550Z,99524.75
2023-04-22T16:01:18.688Z,99518.69
2023-04-22T16:03:50.249Z,99521.22
2023-04-22T16:06:18.730Z,99516.97
2023-04-22T16:08:46.277Z,99530.00
2023-04-22T16:11:15.396Z,99539.66
2023-04-22T16:13:42.942Z,99522.38
2023-04-22T16:16:10.240Z,99530.22
2023-04-22T16:18:38.053Z,99532.84
2023-04-22T16:21:06.734Z,99542.50
2023-04-22T16:23:34.812Z,99543.44
2023-04-22T16:26:02.946Z,99541.69
2023-04-22T16:28:30.109Z,99520.03
2023-04-22T16:30:57.249Z,99518.28
2023-04-22T16:33:25.551Z,99543.53
2023-04-22T16:35:52.581Z,99536.63
2023-04-22T16:38:19.704Z,99539.38
2023-04-22T16:40:46.684Z,99538.56
2023-04-22T16:43:13.837Z,99549.84
2023-04-22T16:45:41.166Z,99555.16
2023-04-22T16:48:08.193Z,99559.56
2023-04-22T16:50:35.408Z,99542.22
2023-04-22T16:53:02.467Z,99550.97
2023-04-22T16:55:29.500Z,99551.09
2023-04-22T16:57:58.496Z,99563.31
2023-04-22T17:00:25.610Z,99560.84
2023-04-22T17:02:52.896Z,99572.22
2023-04-22T17:05:20.112Z,99560.16
2023-04-22T17:07:47.165Z,99552.44
2023-04-22T17:10:14.365Z,99567.19
2023-04-22T17:12:41.430Z,99581.16
2023-04-22T17:15:08.943Z,99526.50
2023-04-22T17:17:36.111Z,99574.25
2023-04-22T17:20:03.258Z,99581.28
2023-04-22T17:22:31.241Z,99585.69
2023-04-22T17:24:58.992Z,99585.69
2023-04-22T17:27:26.863Z,99561.41
2023-04-22T17:29:53.928Z,99576.16
2023-04-22T17:32:21.040Z,99555.41
2023-04-22T17:34:48.160Z,99581.47
2023-04-22T17:37:15.344Z,99588.44
2023-04-22T17:39:42.379Z,99586.75
2023-04-22T17:42:09.432Z,99580.72
2023-04-22T17:44:36.500Z,99574.78
2023-04-22T17:47:05.192Z,99606.06
2023-04-22T17:49:33.885Z,99597.41
2023-04-22T17:52:01.078Z,99612.22
2023-04-22T17:54:28.206Z,99599.25
2023-04-22T17:56:55.257Z,99613.13
2023-04-22T17:59:22.332Z,99617.50
2023-04-22T18:01:49.409Z,99597.59
2023-04-22T18:04:16.681Z,99617.63
2023-04-22T18:06:43.804Z,99621.13
2023-04-22T18:09:10.855Z,99628.09
2023-04-22T18:11:37.914Z,99622.03
2023-04-22T18:14:05.040Z,99626.44
2023-04-22T18:16:32.551Z,99629.06
2023-04-22T18:19:02.358Z,99623.00
2023-04-22T18:21:29.853Z,99636.91
2023-04-22T18:23:56.926Z,99623.00
2023-04-22T18:26:24.051Z,99635.19
2023-04-22T18:28:51.074Z,99635.22
2023-04-22T18:31:18.114Z,99629.13
2023-04-22T18:33:45.216Z,99630.00
2023-04-22T18:36:12.301Z,99620.44
2023-04-22T18:38:39.350Z,99623.94
2023-04-22T18:41:06.972Z,99630.03
2023-04-22T18:43:34.135Z,99629.16
2023-04-22T18:46:01.239Z,99634.38
2023-04-22T18:48:28.280Z,99630.91
2023-04-22T18:50:55.449Z,99634.41
2023-04-22T18:53:22.598Z,99630.94
2023-04-22T18:55:49.724Z,99573.59
2023-04-22T18:58:16.836Z,99631.81
2023-04-22T19:00:43.938Z,99635.28
2023-04-22T19:03:11.402Z,99637.91
2023-04-22T19:05:39.035Z,99629.22
2023-04-22T19:08:06.064Z,99628.34
2023-04-22T19:10:33.313Z,99643.13
2023-04-22T19:13:00.332Z,99631.81
2023-04-22T19:15:27.390Z,99644.84
2023-04-22T19:17:54.961Z,99647.47
2023-04-22T19:20:22.192Z,99650.09
2023-04-22T19:22:49.498Z,99650.06
2023-04-22T19:25:18.820Z,99652.69
2023-04-22T19:27:47.508Z,99653.53
2023-04-22T19:30:15.002Z,99654.41
2023-04-22T19:32:42.680Z,99639.63
2023-04-22T19:35:12.585Z,99621.31
2023-04-22T19:37:39.762Z,99656.13
2023-04-22T19:40:07.455Z,99663.06
2023-04-22T19:42:34.506Z,99663.88
2023-04-22T19:45:01.495Z,99654.31
2023-04-22T19:47:31.697Z,99646.47
2023-04-22T19:49:59.160Z,99662.16
2023-04-22T19:52:27.813Z,99672.53
2023-04-22T19:54:58.890Z,99673.44
2023-04-22T19:57:26.572Z,99669.06
2023-04-22T19:59:54.402Z,99678.63
2023-04-22T20:02:23.705Z,99660.34
2023-04-22T20:04:50.986Z,99672.53
2023-04-22T20:07:19.390Z,99682.94
2023-04-22T20:09:46.842Z,99673.41
2023-04-22T20:12:14.191Z,99671.63
2023-04-22T20:14:41.880Z,99674.25
2023-04-22T20:17:09.817Z,99660.28
2023-04-22T20:19:37.693Z,99679.44
2023-04-22T20:22:06.769Z,99678.53
2023-04-22T20:24:38.964Z,99682.00
2023-04-22T20:27:06.829Z,99613.25
2023-04-22T20:29:36.165Z,99640.22
2023-04-22T20:32:05.148Z,99681.94
2023-04-22T20:34:36.282Z,99679.31
2023-04-22T20:37:06.095Z,99671.41
2023-04-22T20:39:34.520Z,99686.13
2023-04-22T20:42:03.010Z,99681.72
2023-04-22T20:44:30.631Z,99690.44
2023-04-22T20:46:58.977Z,99684.31
2023-04-22T20:49:26.642Z,99652.13
2023-04-22T20:51:54.375Z,99666.88
2023-04-22T20:54:28.975Z,99634.66
2023-04-22T20:56:57.896Z,99693.84
2023-04-22T20:59:25.052Z,99692.13
2023-04-22T21:01:53.824Z,99596.28
2023-04-22T21:04:23.997Z,99692.06
2023-04-22T21:06:52.437Z,99680.69
2023-04-22T21:09:24.990Z,99694.63
2023-04-22T21:11:53.077Z,99647.56
2023-04-22T21:14:22.352Z,99698.03
2023-04-22T21:17:05.328Z,99697.19
2023-04-22T21:19:34.117Z,99697.94
2023-04-22T21:22:05.811Z,99693.59
2023-04-22T21:24:35.190Z,99688.31
2023-04-22T21:27:03.128Z,99707.47
2023-04-22T21:29:30.542Z,99695.19
2023-04-22T21:32:07.226Z,99701.13
2023-04-22T21:34:36.227Z,99707.19
2023-04-22T21:37:04.607Z,99715.81
2023-04-22T21:39:31.643Z,99712.41
2023-04-22T21:41:58.992Z,99715.00
2023-04-22T21:44:26.110Z,99718.47
2023-04-22T21:46:53.195Z,99714.13
2023-04-22T21:49:20.722Z,99706.31
2023-04-22T21:51:48.147Z,99707.13
2023-04-22T21:54:15.156Z,99703.59
2023-04-22T21:56:42.368Z,99723.66
2023-04-22T21:59:09.451Z,99712.28
2023-04-22T22:01:36.485Z,99711.31
2023-04-22T22:04:03.847Z,99725.13
2023-04-22T22:06:31.651Z,99722.50
2023-04-22T22:08:58.960Z,99717.25
2023-04-22T22:11:30.689Z,99682.38
2023-04-22T22:13:58.959Z,99709.41
2023-04-22T22:16:26.208Z,99727.69
2023-04-22T22:18:53.433Z,99717.94
2023-04-22T22:21:20.553Z,99738.75
2023-04-22T22:23:47.628Z,99737.81
2023-04-22T22:26:14.675Z,99737.78
2023-04-22T22:28:41.709Z,99734.31
2023-04-22T22:31:08.754Z,99743.84
2023-04-22T22:33:35.834Z,99736.84
2023-04-22T22:36:02.837Z,99736.84
2023-04-22T22:38:29.914Z,99704.53
2023-04-22T22:40:56.901Z,99747.22
2023-04-22T22:43:23.977Z,99741.16
2023-04-22T22:45:51.176Z,99745.44
2023-04-22T22:48:18.336Z,99747.16
2023-04-22T22:50:46.569Z,99743.63
2023-04-22T22:53:13.580Z,99748.78
2023-04-22T22:55:40.681Z,99725.16
2023-04-22T22:58:07.769Z,99722.50
2023-04-22T23:00:34.880Z,99739.94
2023-04-22T23:03:02.219Z,99739.94
2023-04-22T23:05:29.418Z,99744.28
2023-04-22T23:07:56.453Z,99729.41
2023-04-22T23:10:23.559Z,99749.41
2023-04-22T23:12:50.718Z,99752.84
2023-04-22T23:15:17.763Z,99694.38
2023-04-22T23:17:45.927Z,99739.69
2023-04-22T23:20:14.239Z,99744.97
2023-04-22T23:22:43.501Z,99750.09
2023-04-22T23:25:12.225Z,99756.22
2023-04-22T23:27:39.488Z,99753.59
2023-04-22T23:30:08.187Z,99754.38
2023-04-22T23:32:39.147Z,99755.16
2023-04-22T23:35:08.519Z,99762.94
2023-04-22T23:37:37.856Z,99745.44
2023-04-22T23:40:06.851Z,99762.84
2023-04-22T23:42:33.904Z,99768.03
2023-04-22T23:45:00.990Z,99751.38
2023-04-22T23:47:28.420Z,99759.25
2023-04-22T23:49:55.931Z,99775.78
2023-04-22T23:52:23.682Z,99768.78
2023-04-22T23:54:51.922Z,99774.84
2023-04-22T23:57:19.231Z,99766.16
2023-04-22T23:59:46.785Z,99766.03
